Time;durP1;ratioP1;P1;durP2;ratioP2;P2;SDS_P1;SDS_P2;PMS_P1;PMS_P2;Temp;Humidity;BMP_temperature;BMP_pressure;BME280_temperature;BME280_humidity;BME280_pressure;Samples;Min_cycle;Max_cycle;Signal;HPM_P1;HPM_P2
2024/03/14 00:01:16;;;;;;;13.13;6.20;;;12.90;99.90;;;;;;7382900;19;20250;-80
2024/03/14 00:03:45;;;;;;;13.43;7.88;;;12.90;99.90;;;;;;7381237;19;20361;-79
2024/03/14 00:06:17;;;;;;;19.70;8.10;;;12.80;99.90;;;;;;7383163;19;20373;-79
2024/03/14 00:08:46;;;;;;;18.30;6.68;;;12.80;99.90;;;;;;7406937;19;20235;-79
2024/03/14 00:11:15;;;;;;;8.70;5.30;;;12.80;99.90;;;;;;7382298;19;20020;-78
2024/03/14 00:13:46;;;;;;;11.55;5.63;;;12.70;99.90;;;;;;7381800;19;20023;-79
2024/03/14 00:16:16;;;;;;;10.05;5.57;;;12.70;99.90;;;;;;7381238;19;20006;-79
2024/03/14 00:18:44;;;;;;;9.25;5.63;;;12.70;99.90;;;;;;7382996;19;20011;-79
2024/03/14 00:21:14;;;;;;;12.73;5.55;;;12.70;99.90;;;;;;7383716;19;20036;-78
2024/03/14 00:23:44;;;;;;;13.55;5.65;;;12.70;99.90;;;;;;7402098;19;20362;-78
2024/03/14 00:26:13;;;;;;;8.13;5.50;;;12.70;99.90;;;;;;7380047;19;20034;-78
2024/03/14 00:28:42;;;;;;;10.63;5.72;;;12.70;99.90;;;;;;7379777;19;20040;-78
2024/03/14 00:31:13;;;;;;;18.10;9.65;;;12.70;99.90;;;;;;7381525;19;20219;-78
2024/03/14 00:33:43;;;;;;;21.85;10.65;;;12.70;99.90;;;;;;7389675;19;20007;-79
2024/03/14 00:36:14;;;;;;;26.35;11.70;;;12.70;99.90;;;;;;7383498;19;20075;-80
2024/03/14 00:38:43;;;;;;;;;;;12.70;99.90;;;;;;7403125;19;20035;-78
2024/03/14 00:41:16;;;;;;;14.02;8.00;;;12.70;99.90;;;;;;7380835;19;19926;-79
2024/03/14 00:43:47;;;;;;;18.27;8.32;;;12.60;99.90;;;;;;7379625;19;20007;-80
2024/03/14 00:46:19;;;;;;;21.08;9.20;;;12.70;99.90;;;;;;7381011;19;20069;-78
2024/03/14 00:48:47;;;;;;;12.55;6.43;;;12.60;99.90;;;;;;7380134;19;20012;-79
2024/03/14 00:51:16;;;;;;;11.65;6.60;;;12.50;99.90;;;;;;7378728;19;20368;-79
2024/03/14 00:53:45;;;;;;;8.55;5.43;;;12.40;99.90;;;;;;7399356;19;20011;-79
2024/03/14 00:56:15;;;;;;;10.70;6.30;;;12.40;99.90;;;;;;7378690;19;20011;-79
2024/03/14 00:58:44;;;;;;;13.82;8.35;;;12.30;99.90;;;;;;7379684;19;20023;-81
2024/03/14 01:01:13;;;;;;;15.35;6.10;;;12.30;99.90;;;;;;7385776;19;20058;-79
2024/03/14 01:03:44;;;;;;;11.10;5.57;;;12.30;99.90;;;;;;7391534;19;20006;-79
2024/03/14 01:06:14;;;;;;;9.75;4.93;;;12.30;99.90;;;;;;7390673;19;20007;-79
2024/03/14 01:08:43;;;;;;;12.10;6.38;;;12.30;99.90;;;;;;7416757;19;20353;-78
2024/03/14 01:11:12;;;;;;;14.18;7.25;;;12.40;99.90;;;;;;7392722;19;20003;-78
2024/03/14 01:13:40;;;;;;;20.13;7.65;;;12.30;99.90;;;;;;7386966;19;20252;-80
2024/03/14 01:16:09;;;;;;;12.32;7.25;;;12.30;99.90;;;;;;7386080;19;20003;-79
2024/03/14 01:18:39;;;;;;;13.68;7.03;;;12.30;99.90;;;;;;7384465;19;20011;-78
2024/03/14 01:21:10;;;;;;;13.93;7.40;;;12.30;99.90;;;;;;7385390;19;20011;-78
2024/03/14 01:23:39;;;;;;;8.70;4.80;;;12.20;99.90;;;;;;7410811;19;20010;-79
2024/03/14 01:26:09;;;;;;;13.15;7.65;;;12.30;99.90;;;;;;7390741;19;20003;-79
2024/03/14 01:28:38;;;;;;;11.98;7.00;;;12.20;99.90;;;;;;7391245;19;20010;-79
2024/03/14 01:31:07;;;;;;;16.50;7.53;;;12.20;99.90;;;;;;7389746;19;20062;-79
2024/03/14 01:33:36;;;;;;;17.00;9.10;;;12.20;99.90;;;;;;7391328;19;20010;-79
2024/03/14 01:36:06;;;;;;;18.52;9.35;;;12.20;99.90;;;;;;7386189;19;20346;-78
2024/03/14 01:38:37;;;;;;;15.95;8.95;;;12.20;99.90;;;;;;7405916;19;20015;-79
2024/03/14 01:41:20;;;;;;;16.30;8.55;;;12.20;99.90;;;;;;7384290;19;20003;-80
2024/03/14 01:44:04;;;;;;;15.80;9.15;;;12.20;99.90;;;;;;7386044;19;20062;-78
2024/03/14 01:46:34;;;;;;;16.00;8.85;;;12.10;99.90;;;;;;7391286;19;20006;-79
2024/03/14 01:49:04;;;;;;;14.35;6.72;;;12.10;99.90;;;;;;7390982;19;20261;-79
2024/03/14 01:51:34;;;;;;;10.75;5.43;;;12.10;99.90;;;;;;7384947;19;20011;-77
2024/03/14 01:54:05;;;;;;;9.90;6.28;;;12.10;99.90;;;;;;7406259;19;20007;-79
2024/03/14 01:56:36;;;;;;;12.68;6.60;;;12.10;99.90;;;;;;7386665;19;20010;-78
2024/03/14 01:59:04;;;;;;;11.30;6.10;;;12.00;99.90;;;;;;7385062;19;20044;-79
2024/03/14 02:01:33;;;;;;;15.05;6.97;;;12.00;99.90;;;;;;7385562;19;20006;-79
2024/03/14 02:04:07;;;;;;;13.23;6.18;;;12.00;99.90;;;;;;7386901;19;20026;-79
2024/03/14 02:06:43;;;;;;;13.57;6.68;;;12.00;99.90;;;;;;7386100;19;20034;-80
2024/03/14 02:09:16;;;;;;;15.68;7.10;;;12.00;99.90;;;;;;7384510;19;20006;-78
2024/03/14 02:11:45;;;;;;;19.95;7.82;;;11.90;99.90;;;;;;7407087;19;20031;-79
2024/03/14 02:14:14;;;;;;;16.33;6.05;;;11.90;99.90;;;;;;7386168;19;20030;-79
2024/03/14 02:16:43;;;;;;;11.65;5.55;;;11.90;99.90;;;;;;7384698;19;20118;-79
2024/03/14 02:19:11;;;;;;;12.32;6.85;;;11.90;99.90;;;;;;7384193;19;20007;-78
2024/03/14 02:21:41;;;;;;;12.48;7.10;;;11.80;99.90;;;;;;7384189;19;20010;-79
2024/03/14 02:24:12;;;;;;;15.15;6.57;;;11.80;99.90;;;;;;7392820;19;20522;-78
2024/03/14 02:26:42;;;;;;;11.13;5.93;;;11.80;99.90;;;;;;7413978;19;20349;-78
2024/03/14 02:29:11;;;;;;;15.65;5.55;;;11.80;99.90;;;;;;7384751;19;20007;-80
2024/03/14 02:31:40;;;;;;;7.47;4.95;;;11.80;99.90;;;;;;7382931;19;20006;-79
2024/03/14 02:34:09;;;;;;;16.98;4.35;;;11.80;99.90;;;;;;7383687;19;20002;-78
2024/03/14 02:36:38;;;;;;;14.50;5.85;;;11.80;99.90;;;;;;7383969;19;20103;-79
2024/03/14 02:39:09;;;;;;;16.35;5.95;;;11.70;99.90;;;;;;7405427;19;20011;-78
2024/03/14 02:41:41;;;;;;;;;;;11.70;99.90;;;;;;7384117;19;20083;-78
2024/03/14 02:44:17;;;;;;;13.68;7.03;;;11.80;99.90;;;;;;7379474;19;20148;-78
2024/03/14 02:46:50;;;;;;;11.50;6.53;;;11.70;99.90;;;;;;7383885;19;20146;-80
2024/03/14 02:49:20;;;;;;;19.02;6.75;;;11.70;99.90;;;;;;7385078;19;20007;-80
2024/03/14 02:51:49;;;;;;;16.00;7.68;;;11.70;99.90;;;;;;7386716;19;20244;-79
2024/03/14 02:54:19;;;;;;;14.90;7.50;;;11.80;99.90;;;;;;7384814;19;20010;-79
2024/03/14 02:56:51;;;;;;;13.35;6.45;;;11.70;99.90;;;;;;7403923;19;20014;-79
2024/03/14 02:59:20;;;;;;;15.45;6.72;;;11.70;99.90;;;;;;7385589;19;20024;-80
2024/03/14 03:01:53;;;;;;;9.85;5.97;;;11.60;99.90;;;;;;7388314;19;19998;-78
2024/03/14 03:04:24;;;;;;;24.05;7.30;;;11.60;99.90;;;;;;7390088;19;19999;-79
2024/03/14 03:06:54;;;;;;;12.10;7.32;;;11.60;99.90;;;;;;7385264;19;20002;-79
2024/03/14 03:09:25;;;;;;;14.87;6.83;;;11.60;99.90;;;;;;7383440;19;20045;-80
2024/03/14 03:11:57;;;;;;;13.98;7.50;;;11.60;99.90;;;;;;7405866;19;20453;-79
2024/03/14 03:14:26;;;;;;;13.35;7.03;;;11.60;99.90;;;;;;7382150;19;20024;-79
2024/03/14 03:16:55;;;;;;;13.93;6.82;;;11.60;99.90;;;;;;7382305;19;20122;-78
2024/03/14 03:19:24;;;;;;;13.50;6.80;;;11.60;99.90;;;;;;7382674;19;20258;-79
2024/03/14 03:21:53;;;;;;;15.02;6.18;;;11.60;99.90;;;;;;7383608;19;20100;-78
2024/03/14 03:24:19;;;;;;;15.10;6.32;;;11.60;99.90;;;;;;7379838;19;20054;-80
2024/03/14 03:26:48;;;;;;;11.82;6.78;;;11.60;99.90;;;;;;7404837;19;20258;-79
2024/03/14 03:29:16;;;;;;;11.10;6.50;;;11.60;99.90;;;;;;7381773;19;20015;-79
2024/03/14 03:31:45;;;;;;;9.88;6.60;;;11.50;99.90;;;;;;7381739;19;20291;-79
2024/03/14 03:34:11;;;;;;;13.07;6.72;;;11.50;99.90;;;;;;7380781;19;20006;-79
2024/03/14 03:36:46;;;;;;;16.45;6.40;;;11.50;99.90;;;;;;7382891;19;20006;-78
2024/03/14 03:39:12;;;;;;;12.55;6.55;;;11.50;99.90;;;;;;7399955;19;20006;-80
2024/03/14 03:41:41;;;;;;;11.15;6.05;;;11.40;99.90;;;;;;7408658;19;20030;-80
2024/03/14 03:44:08;;;;;;;12.68;6.93;;;11.40;99.90;;;;;;7387854;19;20007;-80
2024/03/14 03:46:45;;;;;;;17.67;7.20;;;11.40;99.90;;;;;;7385130;19;20025;-81
2024/03/14 03:49:11;;;;;;;13.60;7.22;;;11.40;99.90;;;;;;7385039;19;20027;-80
2024/03/14 03:51:40;;;;;;;14.95;7.45;;;11.40;99.90;;;;;;7386978;19;20007;-79
2024/03/14 03:54:07;;;;;;;14.50;6.90;;;11.30;99.90;;;;;;7405869;19;20027;-79
2024/03/14 03:56:36;;;;;;;12.68;7.65;;;11.40;99.90;;;;;;7389045;19;20003;-79
2024/03/14 03:59:07;;;;;;;9.80;7.18;;;11.40;99.90;;;;;;7386031;19;20023;-79
2024/03/14 04:01:36;;;;;;;14.70;7.72;;;11.40;99.90;;;;;;7383212;19;20011;-79
2024/03/14 04:04:05;;;;;;;22.20;9.02;;;11.40;99.90;;;;;;7381168;19;20015;-78
2024/03/14 04:06:33;;;;;;;33.75;10.27;;;11.40;99.90;;;;;;7380634;19;20024;-80
2024/03/14 04:09:02;;;;;;;24.15;9.98;;;11.40;99.90;;;;;;7401797;19;20086;-81
2024/03/14 04:11:28;;;;;;;16.95;8.30;;;11.40;99.90;;;;;;7381241;19;20017;-79
2024/03/14 04:13:57;;;;;;;24.10;9.07;;;11.40;99.90;;;;;;7382383;19;20027;-80
2024/03/14 04:16:28;;;;;;;21.33;8.48;;;11.40;99.90;;;;;;7383164;19;20011;-79
2024/03/14 04:19:02;;;;;;;14.70;8.27;;;11.40;99.90;;;;;;7381155;19;20014;-80
2024/03/14 04:21:42;;;;;;;25.95;9.63;;;11.40;99.90;;;;;;7383440;19;20035;-79
2024/03/14 04:24:22;;;;;;;21.58;9.32;;;11.40;99.90;;;;;;7403546;19;20019;-79
2024/03/14 04:27:06;;;;;;;14.60;7.47;;;11.40;99.90;;;;;;7382737;19;19999;-78
2024/03/14 04:29:36;;;;;;;15.52;7.03;;;11.40;99.90;;;;;;7379426;19;20007;-79
2024/03/14 04:32:10;;;;;;;15.82;7.40;;;11.40;99.90;;;;;;7382262;19;20003;-79
2024/03/14 04:34:42;;;;;;;20.63;7.00;;;11.50;99.90;;;;;;7380966;19;20211;-79
2024/03/14 04:37:12;;;;;;;25.55;8.48;;;11.40;99.90;;;;;;7385350;19;20267;-78
2024/03/14 04:39:40;;;;;;;16.73;6.78;;;11.50;99.90;;;;;;7390196;19;20021;-79
2024/03/14 04:42:10;;;;;;;21.73;7.45;;;11.40;99.90;;;;;;7407561;19;20252;-78
2024/03/14 04:44:39;;;;;;;15.10;7.75;;;11.40;99.90;;;;;;7384384;19;20015;-78
2024/03/14 04:47:10;;;;;;;20.88;8.55;;;11.40;99.90;;;;;;7387391;19;20006;-79
2024/03/14 04:49:41;;;;;;;19.05;8.18;;;11.40;99.90;;;;;;7386865;19;20014;-78
2024/03/14 04:52:11;;;;;;;20.60;8.07;;;11.40;99.90;;;;;;7388916;19;20032;-79
2024/03/14 04:54:40;;;;;;;16.63;8.15;;;11.40;99.90;;;;;;7389111;19;20007;-78
2024/03/14 04:57:09;;;;;;;16.98;8.55;;;11.40;99.90;;;;;;7410005;19;20003;-80
2024/03/14 04:59:40;;;;;;;16.10;8.55;;;11.40;99.90;;;;;;7388765;19;20348;-78
2024/03/14 05:02:08;;;;;;;16.27;8.80;;;11.40;99.90;;;;;;7389470;19;20078;-78
2024/03/14 05:04:37;;;;;;;16.55;7.90;;;11.40;99.90;;;;;;7387029;19;20010;-77
2024/03/14 05:07:09;;;;;;;17.08;7.47;;;11.40;99.90;;;;;;7385184;19;20614;-79
2024/03/14 05:09:38;;;;;;;10.18;6.88;;;11.40;99.90;;;;;;7385866;19;20051;-78
2024/03/14 05:12:09;;;;;;;21.02;7.57;;;11.50;99.90;;;;;;7409807;19;20011;-78
2024/03/14 05:14:38;;;;;;;14.52;6.75;;;11.50;99.90;;;;;;7385870;19;20021;-79
2024/03/14 05:17:07;;;;;;;19.27;7.40;;;11.50;99.90;;;;;;7386692;19;20010;-77
2024/03/14 05:19:36;;;;;;;18.45;8.18;;;11.50;99.90;;;;;;7384939;19;20007;-78
2024/03/14 05:22:07;;;;;;;18.55;7.63;;;11.40;99.90;;;;;;7386584;19;20394;-77
2024/03/14 05:24:36;;;;;;;19.48;7.97;;;11.40;99.90;;;;;;7384722;19;20019;-78
2024/03/14 05:27:05;;;;;;;12.63;6.82;;;11.40;99.90;;;;;;7409008;19;20015;-78
2024/03/14 05:29:34;;;;;;;15.95;7.47;;;11.40;99.90;;;;;;7382970;19;20003;-78
2024/03/14 05:32:03;;;;;;;20.13;7.40;;;11.40;99.90;;;;;;7387234;19;20011;-78
2024/03/14 05:34:32;;;;;;;11.32;6.90;;;11.30;99.90;;;;;;7390078;19;20018;-79
2024/03/14 05:37:01;;;;;;;13.73;7.00;;;11.30;99.90;;;;;;7394258;19;20017;-80
2024/03/14 05:39:32;;;;;;;12.95;7.10;;;11.30;99.90;;;;;;7385599;19;20007;-79
2024/03/14 05:42:01;;;;;;;12.15;6.47;;;11.30;99.90;;;;;;7411360;19;20031;-79
2024/03/14 05:44:30;;;;;;;13.63;7.20;;;11.30;99.90;;;;;;7385259;19;20051;-79
2024/03/14 05:46:59;;;;;;;24.00;7.75;;;11.30;99.90;;;;;;7386590;19;20232;-80
2024/03/14 05:49:28;;;;;;;13.05;7.30;;;11.20;99.90;;;;;;7387018;19;20002;-79
2024/03/14 05:51:57;;;;;;;14.15;7.70;;;11.20;99.90;;;;;;7387168;19;20014;-79
2024/03/14 05:54:26;;;;;;;22.98;8.02;;;11.20;99.90;;;;;;7385018;19;20063;-78
2024/03/14 05:56:57;;;;;;;17.05;9.13;;;11.10;99.90;;;;;;7406776;19;20033;-77
2024/03/14 05:59:26;;;;;;;27.40;8.68;;;11.20;99.90;;;;;;7385120;19;20003;-78
2024/03/14 06:01:55;;;;;;;18.92;9.45;;;11.10;99.90;;;;;;7385220;19;20019;-79
2024/03/14 06:04:24;;;;;;;19.90;8.23;;;11.10;99.90;;;;;;7385079;19;20006;-79
2024/03/14 06:06:53;;;;;;;22.40;8.20;;;11.10;99.90;;;;;;7386564;19;20235;-78
2024/03/14 06:09:32;;;;;;;29.63;8.88;;;11.10;99.90;;;;;;7406166;19;20003;-78
2024/03/14 06:12:05;;;;;;;20.65;8.60;;;11.10;99.90;;;;;;7391877;19;20044;-79
2024/03/14 06:14:34;;;;;;;18.63;8.75;;;11.10;99.90;;;;;;7391082;19;20011;-78
2024/03/14 06:17:03;;;;;;;22.35;10.57;;;11.10;99.90;;;;;;7389664;19;20006;-79
2024/03/14 06:19:31;;;;;;;18.20;8.25;;;11.10;99.90;;;;;;7393916;19;20019;-79
2024/03/14 06:22:00;;;;;;;16.52;7.78;;;11.10;99.90;;;;;;7385830;19;20650;-78
2024/03/14 06:24:29;;;;;;;20.17;8.02;;;11.10;99.90;;;;;;7385798;19;20006;-79
2024/03/14 06:26:59;;;;;;;19.63;8.25;;;11.10;99.90;;;;;;7406566;19;20003;-78
2024/03/14 06:29:31;;;;;;;16.90;8.38;;;11.00;99.90;;;;;;7384530;19;20006;-78
2024/03/14 06:31:59;;;;;;;;;;;11.10;99.90;;;;;;7385616;19;20229;-78
2024/03/14 06:34:29;;;;;;;22.58;8.35;;;11.10;99.90;;;;;;7383229;19;19923;-78
2024/03/14 06:36:58;;;;;;;14.05;7.70;;;11.10;99.90;;;;;;7383234;19;20292;-78
2024/03/14 06:39:28;;;;;;;14.48;7.50;;;11.00;99.90;;;;;;7384324;19;20010;-78
2024/03/14 06:41:57;;;;;;;16.05;7.75;;;11.00;99.90;;;;;;7404458;19;20017;-78
2024/03/14 06:44:26;;;;;;;18.20;7.97;;;11.00;99.90;;;;;;7383124;19;20096;-76
2024/03/14 06:46:59;;;;;;;19.65;8.07;;;11.10;99.90;;;;;;7384206;19;20008;-78
2024/03/14 06:49:28;;;;;;;18.25;8.27;;;11.00;99.90;;;;;;7382688;19;20087;-78
2024/03/14 06:52:00;;;;;;;17.25;8.25;;;11.10;99.90;;;;;;7385481;19;20006;-78
2024/03/14 06:54:29;;;;;;;15.27;7.55;;;11.10;99.90;;;;;;7389191;19;20007;-78
2024/03/14 06:57:00;;;;;;;13.15;7.47;;;11.10;99.90;;;;;;7403716;19;20362;-78
2024/03/14 06:59:29;;;;;;;20.02;8.88;;;11.10;99.90;;;;;;7379945;19;20010;-78
2024/03/14 07:02:00;;;;;;;16.98;8.50;;;11.10;99.90;;;;;;7383033;19;20003;-79
2024/03/14 07:04:33;;;;;;;18.08;8.45;;;11.10;99.90;;;;;;7381678;19;20023;-78
2024/03/14 07:07:02;;;;;;;15.43;8.32;;;11.20;99.90;;;;;;7383214;19;20087;-79
2024/03/14 07:09:32;;;;;;;19.42;8.57;;;11.20;99.90;;;;;;7380476;19;20244;-79
2024/03/14 07:12:00;;;;;;;23.30;8.38;;;11.30;99.90;;;;;;7404394;19;20098;-78
2024/03/14 07:14:29;;;;;;;14.23;8.02;;;11.30;99.90;;;;;;7382673;19;20024;-79
2024/03/14 07:17:01;;;;;;;16.35;8.57;;;11.30;99.90;;;;;;7382913;19;20082;-78
2024/03/14 07:19:29;;;;;;;19.00;8.95;;;11.40;99.90;;;;;;7381631;19;20027;-77
2024/03/14 07:21:59;;;;;;;14.63;8.45;;;11.40;99.90;;;;;;7383037;19;20006;-78
2024/03/14 07:24:27;;;;;;;13.93;8.70;;;11.40;99.90;;;;;;7393539;19;20010;-77
2024/03/14 07:26:58;;;;;;;17.85;8.43;;;11.50;99.90;;;;;;7403922;19;20010;-78
2024/03/14 07:29:26;;;;;;;22.25;8.50;;;11.60;99.90;;;;;;7380368;19;20003;-78
2024/03/14 07:31:55;;;;;;;21.65;9.02;;;11.60;99.90;;;;;;7381111;19;20062;-78
2024/03/14 07:34:26;;;;;;;22.92;10.27;;;11.70;99.90;;;;;;7381102;19;20010;-78
2024/03/14 07:36:56;;;;;;;23.45;9.52;;;11.70;99.90;;;;;;7383495;19;20003;-78
2024/03/14 07:39:29;;;;;;;16.45;9.52;;;11.80;99.90;;;;;;7403289;19;20301;-78
2024/03/14 07:41:58;;;;;;;19.73;9.43;;;11.90;99.90;;;;;;7381275;19;20006;-78
2024/03/14 07:44:27;;;;;;;17.15;9.25;;;12.00;99.90;;;;;;7379453;19;20019;-78
2024/03/14 07:46:57;;;;;;;19.95;8.95;;;12.00;99.90;;;;;;7380429;19;20007;-77
2024/03/14 07:49:30;;;;;;;18.40;8.98;;;12.10;99.90;;;;;;7382797;19;20013;-78
2024/03/14 07:51:59;;;;;;;16.42;9.52;;;12.20;99.90;;;;;;7381111;19;20079;-77
2024/03/14 07:54:28;;;;;;;18.40;8.18;;;12.30;99.90;;;;;;7391023;19;20017;-78
2024/03/14 07:56:57;;;;;;;14.73;8.45;;;12.40;99.90;;;;;;7402558;19;20071;-78
2024/03/14 07:59:27;;;;;;;13.38;8.70;;;12.50;99.90;;;;;;7379781;19;20015;-77
2024/03/14 08:01:58;;;;;;;17.17;8.10;;;12.60;99.90;;;;;;7380250;19;20010;-79
2024/03/14 08:04:33;;;;;;;17.90;8.45;;;12.60;99.90;;;;;;7382717;19;20019;-79
2024/03/14 08:07:10;;;;;;;14.55;8.45;;;12.70;99.90;;;;;;7388671;19;20002;-80
2024/03/14 08:09:40;;;;;;;16.17;8.15;;;12.70;99.90;;;;;;7382355;19;20010;-79
2024/03/14 08:12:09;;;;;;;19.15;8.00;;;12.80;99.90;;;;;;7399810;19;20003;-77
2024/03/14 08:14:43;;;;;;;14.57;8.38;;;12.90;99.90;;;;;;7377044;19;20015;-77
2024/03/14 08:17:14;;;;;;;18.02;8.45;;;12.80;99.90;;;;;;7375788;19;20382;-77
2024/03/14 08:19:47;;;;;;;13.25;7.65;;;12.90;99.90;;;;;;7377210;19;20586;-76
2024/03/14 08:22:18;;;;;;;14.02;7.68;;;12.90;99.90;;;;;;7378387;19;20003;-76
2024/03/14 08:24:49;;;;;;;14.65;7.22;;;13.00;99.90;;;;;;7378575;19;20010;-76
2024/03/14 08:27:19;;;;;;;15.43;6.97;;;13.00;99.90;;;;;;7397867;19;20010;-77
2024/03/14 08:29:49;;;;;;;12.15;7.10;;;13.00;99.90;;;;;;7376235;19;20396;-75
2024/03/14 08:32:18;;;;;;;11.38;6.32;;;13.10;99.90;;;;;;7378823;19;20454;-75
2024/03/14 08:34:53;;;;;;;9.52;6.30;;;13.10;99.90;;;;;;7380696;19;20006;-78
2024/03/14 08:37:25;;;;;;;13.18;6.20;;;13.10;99.90;;;;;;7383862;19;19998;-77
2024/03/14 08:39:53;;;;;;;;;;;13.10;99.90;;;;;;7381083;19;20227;-76
2024/03/14 08:42:31;;;;;;;11.82;6.03;;;13.20;99.90;;;;;;7402123;19;19914;-76
2024/03/14 08:45:00;;;;;;;15.05;6.43;;;13.20;99.90;;;;;;7377887;19;20010;-76
2024/03/14 08:47:30;;;;;;;14.98;6.28;;;13.30;99.90;;;;;;7376048;19;20009;-76
2024/03/14 08:50:04;;;;;;;12.85;6.47;;;13.30;99.90;;;;;;7375654;19;20002;-76
2024/03/14 08:52:37;;;;;;;10.05;6.35;;;13.40;99.90;;;;;;7376491;19;20027;-77
2024/03/14 08:55:23;;;;;;;11.65;6.40;;;13.40;99.90;;;;;;7376475;19;20228;-76
2024/03/14 08:57:52;;;;;;;13.13;6.10;;;13.40;99.90;;;;;;7380706;19;20016;-76
2024/03/14 09:00:21;;;;;;;11.45;6.35;;;13.40;99.90;;;;;;7399244;19;20015;-77
2024/03/14 09:02:50;;;;;;;11.30;6.35;;;13.50;99.90;;;;;;7375517;19;20006;-74
2024/03/14 09:05:25;;;;;;;16.27;6.97;;;13.50;99.90;;;;;;7375804;19;20062;-75
2024/03/14 09:07:55;;;;;;;13.30;5.40;;;13.50;99.90;;;;;;7376707;19;20009;-77
2024/03/14 09:10:26;;;;;;;14.52;5.82;;;13.60;99.90;;;;;;7377500;19;20003;-76
2024/03/14 09:12:56;;;;;;;11.90;5.85;;;13.60;99.90;;;;;;7376409;19;20007;-76
2024/03/14 09:15:25;;;;;;;17.60;6.22;;;13.70;99.90;;;;;;7398908;19;20071;-75
2024/03/14 09:17:55;;;;;;;12.65;6.20;;;13.70;99.90;;;;;;7377176;19;20006;-77
2024/03/14 09:20:28;;;;;;;18.25;6.30;;;13.80;99.90;;;;;;7382894;19;20010;-77
2024/03/14 09:22:57;;;;;;;20.85;6.22;;;13.80;99.90;;;;;;7384015;19;20011;-75
2024/03/14 09:25:27;;;;;;;11.07;6.18;;;13.80;99.90;;;;;;7383458;19;20265;-77
2024/03/14 09:27:59;;;;;;;12.73;5.80;;;13.80;99.90;;;;;;7384370;19;20006;-76
2024/03/14 09:30:28;;;;;;;13.68;5.70;;;13.90;99.90;;;;;;7403733;19;20002;-78
2024/03/14 09:32:56;;;;;;;16.23;6.07;;;13.90;99.90;;;;;;7386032;19;20011;-78
2024/03/14 09:35:28;;;;;;;12.10;5.97;;;14.00;99.90;;;;;;7383823;19;20016;-75
2024/03/14 09:38:03;;;;;;;13.85;5.45;;;14.00;99.90;;;;;;7382412;19;20234;-75
2024/03/14 09:40:32;;;;;;;13.38;5.70;;;14.10;99.90;;;;;;7382841;19;20023;-77
2024/03/14 09:43:02;;;;;;;10.65;5.25;;;14.10;99.90;;;;;;7380366;19;20002;-77
2024/03/14 09:45:31;;;;;;;9.85;5.20;;;14.10;99.90;;;;;;7404894;19;20027;-76
2024/03/14 09:48:03;;;;;;;12.13;5.95;;;14.20;99.90;;;;;;7382258;19;20007;-75
2024/03/14 09:50:38;;;;;;;10.70;6.30;;;14.20;99.90;;;;;;7383190;19;20070;-78
2024/03/14 09:53:14;;;;;;;10.40;5.20;;;14.20;99.90;;;;;;7388520;19;19998;-78
2024/03/14 09:55:43;;;;;;;12.68;5.78;;;14.20;99.90;;;;;;7388643;19;20011;-78
2024/03/14 09:58:14;;;;;;;13.32;5.75;;;14.30;99.90;;;;;;7385913;19;20002;-74
2024/03/14 10:00:43;;;;;;;13.68;5.10;;;14.30;99.90;;;;;;7384636;19;20369;-78
2024/03/14 10:03:15;;;;;;;13.70;5.28;;;14.30;99.90;;;;;;7407643;19;20010;-78
2024/03/14 10:05:47;;;;;;;11.77;5.32;;;14.40;99.90;;;;;;7385274;19;20019;-80
2024/03/14 10:08:16;;;;;;;;;;;14.40;99.90;;;;;;7385699;19;20065;-79
2024/03/14 10:10:44;;;;;;;21.20;4.97;;;14.40;99.90;;;;;;7384215;19;19975;-78
2024/03/14 10:13:14;;;;;;;14.57;5.28;;;14.40;99.90;;;;;;7384280;19;20010;-81
2024/03/14 10:15:42;;;;;;;10.80;4.95;;;14.40;99.90;;;;;;7382239;19;20358;-77
2024/03/14 10:18:12;;;;;;;9.10;4.78;;;14.40;99.90;;;;;;7403086;19;20027;-77
2024/03/14 10:20:42;;;;;;;9.77;5.03;;;14.50;99.90;;;;;;7380853;19;20035;-76
2024/03/14 10:23:15;;;;;;;14.27;4.95;;;14.50;99.90;;;;;;7381197;19;20058;-77
2024/03/14 10:25:50;;;;;;;7.72;3.80;;;14.50;99.90;;;;;;7385497;19;20227;-77
2024/03/14 10:28:20;;;;;;;12.60;4.70;;;14.50;99.90;;;;;;7383339;19;20011;-77
2024/03/14 10:30:57;;;;;;;9.60;4.40;;;14.50;99.90;;;;;;7382436;19;20011;-78
2024/03/14 10:33:28;;;;;;;7.10;4.45;;;14.60;99.90;;;;;;7406949;19;20035;-75
2024/03/14 10:36:02;;;;;;;12.48;4.22;;;14.70;99.90;;;;;;7385076;19;20386;-76
2024/03/14 10:38:36;;;;;;;13.65;5.05;;;14.70;99.90;;;;;;7382058;19;20010;-79
2024/03/14 10:41:09;;;;;;;12.20;4.65;;;14.70;99.90;;;;;;7388406;19;20007;-81
2024/03/14 10:43:42;;;;;;;7.75;4.63;;;14.80;99.90;;;;;;7385199;19;20009;-79
2024/03/14 10:46:23;;;;;;;9.07;4.28;;;14.80;99.90;;;;;;7383910;19;20098;-82
2024/03/14 10:48:52;;;;;;;8.67;4.50;;;14.90;99.90;;;;;;7386245;19;20031;-80
2024/03/14 10:51:21;;;;;;;17.15;4.35;;;14.90;99.90;;;;;;7406094;19;20003;-82
2024/03/14 10:53:55;;;;;;;7.07;4.38;;;15.00;99.90;;;;;;7387228;19;20010;-81
2024/03/14 10:56:25;;;;;;;15.27;4.43;;;14.90;99.90;;;;;;7391274;19;20109;-80
2024/03/14 10:58:56;;;;;;;13.15;4.72;;;14.80;99.90;;;;;;7392483;19;20003;-79
2024/03/14 11:01:25;;;;;;;;;;;15.00;99.90;;;;;;7393501;19;20014;-81
2024/03/14 11:03:57;;;;;;;6.45;3.78;;;15.00;99.90;;;;;;7390568;19;21214;-81
2024/03/14 11:06:29;;;;;;;14.52;4.18;;;15.00;99.90;;;;;;7406270;19;20010;-78
2024/03/14 11:09:06;;;;;;;15.30;4.05;;;15.10;99.90;;;;;;7379526;19;20011;-76
2024/03/14 11:11:38;;;;;;;12.73;4.57;;;15.20;99.90;;;;;;7379254;19;20052;-78
2024/03/14 11:14:11;;;;;;;10.45;4.47;;;15.20;99.90;;;;;;7387966;19;20361;-79
2024/03/14 11:16:42;;;;;;;8.70;4.47;;;15.20;99.90;;;;;;7381884;19;20002;-78
2024/03/14 11:19:17;;;;;;;8.77;4.10;;;15.30;99.90;;;;;;7380993;19;20052;-78
2024/03/14 11:21:47;;;;;;;11.20;4.78;;;15.30;99.90;;;;;;7383087;19;20046;-78
2024/03/14 11:24:23;;;;;;;11.10;4.50;;;15.30;99.90;;;;;;7404039;19;20661;-79
2024/03/14 11:26:54;;;;;;;7.57;4.25;;;15.30;99.90;;;;;;7381024;19;20019;-78
2024/03/14 11:29:24;;;;;;;10.43;3.63;;;15.40;99.90;;;;;;7379246;19;20006;-76
2024/03/14 11:32:16;;;;;;;17.27;4.22;;;15.50;99.90;;;;;;7379802;19;20006;-79
2024/03/14 11:34:46;;;;;;;10.55;3.95;;;15.70;99.90;;;;;;7378616;19;20003;-76
2024/03/14 11:37:17;;;;;;;11.02;3.72;;;15.70;99.90;;;;;;7378771;19;20369;-76
2024/03/14 11:39:50;;;;;;;9.18;3.97;;;15.90;99.90;;;;;;7377435;19;20287;-76
2024/03/14 11:42:21;;;;;;;11.45;4.75;;;15.90;99.90;;;;;;7398027;19;20370;-76
2024/03/14 11:44:54;;;;;;;12.70;4.55;;;16.00;99.90;;;;;;7374573;19;20011;-76
2024/03/14 11:47:42;;;;;;;14.38;4.38;;;16.00;99.90;;;;;;7378019;19;20087;-74
2024/03/14 11:50:13;;;;;;;11.70;4.57;;;16.00;99.90;;;;;;7377857;19;20002;-74
2024/03/14 11:52:42;;;;;;;8.52;4.10;;;16.10;99.90;;;;;;7377988;19;20405;-74
2024/03/14 11:55:14;;;;;;;12.32;4.45;;;16.10;99.90;;;;;;7378013;19;20012;-74
2024/03/14 11:57:47;;;;;;;10.73;5.00;;;16.20;99.90;;;;;;7377651;19;20015;-74
2024/03/14 12:00:20;;;;;;;14.65;4.15;;;16.30;99.90;;;;;;7399267;19;20002;-74
2024/03/14 12:02:49;;;;;;;13.63;4.30;;;16.30;99.90;;;;;;7376510;19;20250;-73
2024/03/14 12:05:27;;;;;;;10.07;4.45;;;16.40;99.90;;;;;;7376773;19;20358;-74
2024/03/14 12:08:03;;;;;;;15.75;4.07;;;16.50;99.90;;;;;;7377424;19;20036;-75
2024/03/14 12:10:35;;;;;;;13.30;4.40;;;16.50;99.90;;;;;;7376966;19;20007;-74
2024/03/14 12:13:04;;;;;;;9.35;4.20;;;16.60;99.90;;;;;;7377831;19;20014;-74
2024/03/14 12:15:36;;;;;;;10.07;4.07;;;16.70;99.90;;;;;;7398760;19;20024;-75
2024/03/14 12:18:05;;;;;;;8.35;3.30;;;16.60;99.90;;;;;;7376519;19;19998;-74
2024/03/14 12:20:34;;;;;;;11.52;2.90;;;16.70;99.90;;;;;;7376589;19;20027;-74
2024/03/14 12:23:03;;;;;;;8.23;3.30;;;16.80;99.90;;;;;;7377293;19;20031;-74
2024/03/14 12:25:37;;;;;;;5.80;3.55;;;16.90;99.90;;;;;;7377509;19;20011;-74
2024/03/14 12:28:09;;;;;;;8.98;3.42;;;17.00;99.90;;;;;;7377557;19;20022;-74
2024/03/14 12:30:42;;;;;;;5.07;2.72;;;17.00;99.90;;;;;;7398076;19;20014;-75
2024/03/14 12:33:12;;;;;;;11.50;3.08;;;17.00;99.90;;;;;;7376512;19;19999;-75
2024/03/14 12:35:44;;;;;;;5.78;2.72;;;17.00;99.90;;;;;;7376258;19;20007;-75
2024/03/14 12:38:15;;;;;;;10.60;3.45;;;17.00;99.90;;;;;;7376533;19;20003;-75
2024/03/14 12:40:49;;;;;;;10.82;2.95;;;17.10;99.90;;;;;;7375417;19;20007;-75
2024/03/14 12:43:15;;;;;;;9.93;2.78;;;17.20;99.90;;;;;;7376403;19;20027;-74
2024/03/14 12:45:44;;;;;;;8.68;2.47;;;17.20;99.90;;;;;;7396916;19;20014;-75
2024/03/14 12:48:15;;;;;;;8.07;2.60;;;17.10;99.90;;;;;;7375708;19;20006;-76
2024/03/14 12:50:45;;;;;;;6.60;2.75;;;17.00;99.90;;;;;;7378274;19;20009;-81
2024/03/14 12:53:18;;;;;;;7.05;2.80;;;17.10;99.90;;;;;;7378891;19;20036;-80
2024/03/14 12:55:58;;;;;;;6.75;2.53;;;17.10;99.90;;;;;;7378309;19;20007;-78
2024/03/14 12:58:28;;;;;;;7.72;2.90;;;17.10;99.90;;;;;;7386620;19;20002;-79